Search for airport 
image banner adimage banner adimage banner ad
image banner ad

43PA - Kolb

Located in Spring City, United States

ICAO - 43PA, IATA -

Data provided by Airmate  

General information

Coordinates: N40°9'36" W75°32'44"
Elevation is 290 feet MSL.
Magnetic variation is -11° East
View others Airports in Pennsylvania

Operational data

Special qualification required
Current time UTC:
Current local time:
Weather at : KPTW - Heritage Field ( 9 km )
METAR: KPTW 092254Z AUTO 06004KT 8SM -RA OVC100 08/06 A2989 RMK AO2 SLP121 P0003 T00830056
View NOTAMs / SUP AIP / TFR affecting this airport [VIEW]
Communications frequencies: [VIEW]

Runways:

RWY identifierQFULength (ft)Width (ft)SurfaceLDA (ft)
092683100GRASS
272683100GRASS

Airport contact information

Address: Spring City United States

Satellite view of 43PA